Time;durP1;ratioP1;P1;durP2;ratioP2;P2;SDS_P1;SDS_P2;PMS_P1;PMS_P2;Temp;Humidity;BMP_temperature;BMP_pressure;BME280_temperature;BME280_humidity;BME280_pressure;Samples;Min_cycle;Max_cycle;Signal;HPM_P1;HPM_P2
2022/11/06 00:00:14;;;;;;;;;;;;;;;20.05;45.35;94672.22;6120171;19;1874;-68
2022/11/06 00:02:17;;;;;;;;;;;;;;;20.05;45.24;94672.22;6106647;19;1576;-73
2022/11/06 00:04:21;;;;;;;;;;;;;;;20.06;45.37;94676.50;6109133;19;2034;-74
2022/11/06 00:08:42;;;;;;;;;;;;;;;20.06;45.03;94692.50;6124124;19;1956;-73
2022/11/06 00:10:46;;;;;;;;;;;;;;;20.06;44.95;94682.69;6124852;19;1921;-75
2022/11/06 00:12:49;;;;;;;;;;;;;;;20.05;45.35;94674.88;6124916;19;2194;-74
2022/11/06 00:14:52;;;;;;;;;;;;;;;20.05;45.19;94686.34;6097666;19;1833;-75
2022/11/06 00:16:55;;;;;;;;;;;;;;;20.06;45.37;94681.84;6121804;19;1869;-74
2022/11/06 00:19:01;;;;;;;;;;;;;;;20.06;45.14;94684.50;6123478;19;1719;-73
2022/11/06 00:21:08;;;;;;;;;;;;;;;20.06;45.42;94687.16;6123599;19;1703;-73
2022/11/06 00:23:14;;;;;;;;;;;;;;;20.06;45.47;94681.84;6123157;19;2092;-69
2022/11/06 00:25:18;;;;;;;;;;;;;;;20.06;45.50;94687.16;6110112;19;1863;-73
2022/11/06 00:27:21;;;;;;;;;;;;;;;20.06;45.17;94688.00;6110802;19;1869;-72
2022/11/06 00:29:24;;;;;;;;;;;;;;;20.06;45.52;94682.69;6123561;19;1676;-74
2022/11/06 00:31:29;;;;;;;;;;;;;;;20.06;45.27;94680.00;6121516;19;1973;-73
2022/11/06 00:33:33;;;;;;;;;;;;;;;20.07;45.56;94688.81;6122633;19;1920;-74
2022/11/06 00:35:36;;;;;;;;;;;;;;;20.07;45.68;94686.97;6122316;19;2088;-73
2022/11/06 00:37:39;;;;;;;;;;;;;;;20.07;45.44;94678.16;6095197;19;2053;-72
2022/11/06 00:39:45;;;;;;;;;;;;;;;20.07;45.84;94683.47;6122687;19;1823;-73
2022/11/06 00:41:48;;;;;;;;;;;;;;;20.07;45.48;94683.47;6120903;19;1055;-72
2022/11/06 00:43:52;;;;;;;;;;;;;;;20.07;45.46;94686.16;6123640;19;2068;-73
2022/11/06 00:45:56;;;;;;;;;;;;;;;20.07;46.03;94678.97;6123309;19;1604;-73
2022/11/06 00:47:59;;;;;;;;;;;;;;;20.07;45.66;94680.81;6107102;19;2010;-73
2022/11/06 00:50:02;;;;;;;;;;;;;;;20.07;46.19;94678.97;6109999;19;1700;-72
2022/11/06 00:52:06;;;;;;;;;;;;;;;20.07;45.91;94684.28;6123500;19;2025;-73
2022/11/06 00:54:11;;;;;;;;;;;;;;;20.07;46.34;94678.97;6123381;19;2030;-73
2022/11/06 00:56:18;;;;;;;;;;;;;;;20.07;46.23;94678.16;6123249;19;1875;-73
2022/11/06 00:58:22;;;;;;;;;;;;;;;20.08;46.53;94675.25;6122329;19;2040;-73
2022/11/06 01:00:25;;;;;;;;;;;;;;;20.09;46.60;94676.91;6093472;19;1838;-73
2022/11/06 01:02:28;;;;;;;;;;;;;;;20.08;46.52;94682.44;6121202;19;1679;-72
2022/11/06 01:04:32;;;;;;;;;;;;;;;20.08;46.74;94683.25;6123312;19;1846;-73
2022/11/06 01:06:37;;;;;;;;;;;;;;;20.07;46.77;94683.47;6118066;19;1028;-72
2022/11/06 01:08:40;;;;;;;;;;;;;;;20.08;46.72;94674.44;6119998;19;1827;-73
2022/11/06 01:10:43;;;;;;;;;;;;;;;20.08;47.18;94675.25;6111071;19;1866;-74
2022/11/06 01:12:49;;;;;;;;;;;;;;;20.08;47.00;94667.25;6108172;19;1929;-74
2022/11/06 01:14:53;;;;;;;;;;;;;;;20.08;47.12;94663.78;6120601;19;1707;-74
2022/11/06 01:16:56;;;;;;;;;;;;;;;20.09;47.09;94668.09;6121614;19;1911;-74
2022/11/06 01:19:00;;;;;;;;;;;;;;;20.09;47.01;94676.09;6123129;19;2086;-73
2022/11/06 01:21:05;;;;;;;;;;;;;;;20.10;47.08;94662.53;6122463;19;1876;-74
2022/11/06 01:23:08;;;;;;;;;;;;;;;20.10;47.24;94667.06;6092323;19;2093;-74
2022/11/06 01:25:12;;;;;;;;;;;;;;;20.10;47.35;94656.38;6119981;19;955;-73
2022/11/06 01:27:15;;;;;;;;;;;;;;;20.10;47.30;94661.72;6120017;19;1853;-72
2022/11/06 01:29:22;;;;;;;;;;;;;;;20.09;47.36;94660.09;6119433;19;1855;-72
2022/11/06 01:31:26;;;;;;;;;;;;;;;20.09;47.00;94655.56;6119670;19;1923;-74
2022/11/06 01:33:30;;;;;;;;;;;;;;;20.10;47.08;94662.53;6112211;19;1739;-73
2022/11/06 01:35:33;;;;;;;;;;;;;;;20.11;47.08;94660.66;6107022;19;1670;-69
2022/11/06 01:37:36;;;;;;;;;;;;;;;20.10;47.41;94659.03;6119867;19;1891;-73
2022/11/06 01:39:40;;;;;;;;;;;;;;;20.10;47.41;94661.72;6121090;19;1954;-74
2022/11/06 01:41:44;;;;;;;;;;;;;;;20.10;47.01;94662.53;6121494;19;1741;-74
2022/11/06 01:43:50;;;;;;;;;;;;;;;20.11;47.41;94663.34;6122102;19;1983;-74
2022/11/06 01:45:56;;;;;;;;;;;;;;;20.09;47.19;94663.56;6093790;19;1406;-68
2022/11/06 01:48:00;;;;;;;;;;;;;;;20.09;47.12;94668.09;6120334;19;1822;-73
2022/11/06 01:50:07;;;;;;;;;;;;;;;20.10;47.33;94673.19;6121164;19;2098;-72
2022/11/06 01:52:11;;;;;;;;;;;;;;;20.11;47.03;94663.34;6121779;19;1936;-74
2022/11/06 01:54:16;;;;;;;;;;;;;;;20.10;46.90;94661.72;6122095;19;1852;-70
2022/11/06 01:56:19;;;;;;;;;;;;;;;20.07;47.67;94654.97;6116556;19;1845;-69
2022/11/06 01:58:25;;;;;;;;;;;;;;;20.09;47.35;94660.09;6103857;19;2037;-75
2022/11/06 02:00:29;;;;;;;;;;;;;;;20.10;47.78;94667.84;6118775;19;2030;-72
2022/11/06 02:02:36;;;;;;;;;;;;;;;20.09;47.48;94660.91;6121099;19;1854;-75
2022/11/06 02:04:42;;;;;;;;;;;;;;;20.11;47.61;94655.34;6120897;19;1744;-73
2022/11/06 02:06:46;;;;;;;;;;;;;;;20.10;47.71;94657.19;6120638;19;1941;-69
2022/11/06 02:08:49;;;;;;;;;;;;;;;20.10;47.27;94656.38;6094146;19;1917;-68
2022/11/06 02:10:52;;;;;;;;;;;;;;;20.09;47.40;94655.56;6120008;19;1901;-68
2022/11/06 02:13:14;;;;;;;;;;;;;;;20.11;47.48;94660.66;6120245;19;2092;-68
2022/11/06 02:15:22;;;;;;;;;;;;;;;20.09;47.67;94654.75;6119563;19;1900;-68
2022/11/06 02:17:34;;;;;;;;;;;;;;;20.10;47.64;94645.72;6118574;19;1877;-68
2022/11/06 02:19:50;;;;;;;;;;;;;;;20.10;47.33;94659.03;6105635;19;1743;-67
2022/11/06 02:22:05;;;;;;;;;;;;;;;20.10;47.81;94662.53;6119616;19;1689;-68
2022/11/06 02:24:23;;;;;;;;;;;;;;;20.11;47.46;94655.34;6121235;19;1801;-67
2022/11/06 02:26:34;;;;;;;;;;;;;;;20.09;47.44;94655.56;6120946;19;1876;-69
2022/11/06 02:28:41;;;;;;;;;;;;;;;20.09;47.64;94652.09;6121018;19;1849;-68
2022/11/06 02:30:46;;;;;;;;;;;;;;;20.08;47.57;94653.91;6108805;19;2085;-67
2022/11/06 02:32:52;;;;;;;;;;;;;;;20.09;47.83;94649.41;6107092;19;2145;-68
2022/11/06 02:34:56;;;;;;;;;;;;;;;20.10;47.75;94661.72;6120788;19;1843;-67
2022/11/06 02:37:02;;;;;;;;;;;;;;;20.11;48.07;94650.00;6119600;19;1818;-67
2022/11/06 02:39:09;;;;;;;;;;;;;;;20.11;48.12;94658.00;6119535;19;2145;-67
2022/11/06 02:41:16;;;;;;;;;;;;;;;20.11;48.10;94658.00;6118284;19;2046;-68
2022/11/06 02:43:20;;;;;;;;;;;;;;;20.11;47.83;94655.34;6093394;19;2200;-69
2022/11/06 02:45:27;;;;;;;;;;;;;;;20.08;47.95;94664.59;6117596;19;1134;-67
2022/11/06 02:47:33;;;;;;;;;;;;;;;20.09;48.00;94652.91;6120755;19;2082;-70
2022/11/06 02:49:40;;;;;;;;;;;;;;;20.11;47.99;94664.16;6122436;19;1902;-69
2022/11/06 02:51:47;;;;;;;;;;;;;;;20.11;47.86;94663.34;6117240;19;1559;-70
2022/11/06 02:53:51;;;;;;;;;;;;;;;20.12;48.14;94675.66;6109525;19;2096;-69
2022/11/06 02:55:56;;;;;;;;;;;;;;;20.13;48.01;94668.47;6107673;19;1878;-69
2022/11/06 02:58:02;;;;;;;;;;;;;;;20.12;47.85;94681.00;6119790;19;1932;-69
2022/11/06 03:00:07;;;;;;;;;;;;;;;20.13;48.09;94676.47;6115952;19;1880;-69
2022/11/06 03:02:16;;;;;;;;;;;;;;;20.11;48.26;94674.00;6117313;19;2173;-70
2022/11/06 03:04:21;;;;;;;;;;;;;;;20.12;48.35;94675.66;6120769;19;2070;-71
2022/11/06 03:06:29;;;;;;;;;;;;;;;20.11;47.88;94690.81;6095140;19;2066;-71
2022/11/06 03:08:35;;;;;;;;;;;;;;;20.13;48.16;94695.13;6120501;19;2294;-70
2022/11/06 03:10:40;;;;;;;;;;;;;;;20.13;48.11;94687.13;6120374;19;1941;-70
2022/11/06 03:12:51;;;;;;;;;;;;;;;20.12;48.29;94689.00;6118425;19;1804;-70
2022/11/06 03:14:57;;;;;;;;;;;;;;;20.13;48.04;94685.28;6117240;19;1033;-70
2022/11/06 03:17:02;;;;;;;;;;;;;;;20.11;48.02;94690.81;6105858;19;1929;-70
2022/11/06 03:19:10;;;;;;;;;;;;;;;20.12;47.84;94689.00;6106555;19;1757;-70
2022/11/06 03:21:20;;;;;;;;;;;;;;;20.12;47.76;94691.66;6119042;19;1944;-70
2022/11/06 03:23:26;;;;;;;;;;;;;;;20.12;48.13;94689.00;6120028;19;2203;-70
2022/11/06 03:25:32;;;;;;;;;;;;;;;20.11;48.11;94688.16;6120449;19;1921;-69
2022/11/06 03:27:37;;;;;;;;;;;;;;;20.11;47.77;94695.34;6120348;19;2072;-71
2022/11/06 03:29:43;;;;;;;;;;;;;;;20.12;48.01;94702.34;6097670;19;2042;-70
2022/11/06 03:31:50;;;;;;;;;;;;;;;20.12;47.73;94705.00;6123847;19;974;-70
2022/11/06 03:33:56;;;;;;;;;;;;;;;20.11;48.24;94692.69;6126564;19;2184;-69
2022/11/06 03:36:04;;;;;;;;;;;;;;;20.12;47.97;94707.66;6124347;19;2120;-70
2022/11/06 03:38:11;;;;;;;;;;;;;;;20.12;48.01;94697.00;6123258;19;1960;-70
2022/11/06 03:40:17;;;;;;;;;;;;;;;20.11;48.04;94701.50;6104929;19;1645;-69
2022/11/06 03:42:23;;;;;;;;;;;;;;;20.11;47.74;94711.34;6123659;19;2024;-70
2022/11/06 03:44:29;;;;;;;;;;;;;;;20.12;47.86;94707.66;6123456;19;1921;-70
2022/11/06 03:46:33;;;;;;;;;;;;;;;20.12;47.71;94702.34;6125339;19;2017;-70
2022/11/06 03:48:39;;;;;;;;;;;;;;;20.12;48.19;94710.34;6124305;19;2273;-69
2022/11/06 03:50:46;;;;;;;;;;;;;;;20.11;48.12;94706.81;6124825;19;1960;-70
2022/11/06 03:52:55;;;;;;;;;;;;;;;20.13;48.12;94706.63;6099916;19;1783;-70
2022/11/06 03:55:02;;;;;;;;;;;;;;;20.13;48.02;94701.28;6126107;19;1917;-69
2022/11/06 03:57:09;;;;;;;;;;;;;;;20.13;47.98;94698.63;6122233;19;2107;-70
2022/11/06 03:59:17;;;;;;;;;;;;;;;20.13;47.82;94695.13;6124115;19;1575;-71
2022/11/06 04:01:23;;;;;;;;;;;;;;;20.14;48.25;94705.56;6124028;19;1807;-70
2022/11/06 04:03:28;;;;;;;;;;;;;;;20.15;48.06;94707.22;6101152;19;2020;-69
2022/11/06 04:05:34;;;;;;;;;;;;;;;20.15;47.79;94701.91;6123974;19;2026;-69
2022/11/06 04:07:39;;;;;;;;;;;;;;;20.15;48.10;94698.41;6123058;19;2003;-69
2022/11/06 04:14:35;;;;;;;;;;;;;;;20.14;47.77;94702.09;6110069;19;1925;-69
2022/11/06 04:16:40;;;;;;;;;;;;;;;20.14;47.72;94721.59;6117381;19;2023;-70
2022/11/06 04:18:43;;;;;;;;;;;;;;;20.14;48.00;94710.09;6122761;19;2259;-69
2022/11/06 04:23:11;;;;;;;;;;;;;;;20.13;48.09;94709.28;6123740;19;1760;-69
2022/11/06 04:28:04;;;;;;;;;;;;;;;20.13;48.02;94703.16;6109123;19;2175;-70
2022/11/06 04:30:10;;;;;;;;;;;;;;;20.15;47.92;94707.22;6122397;19;1792;-70
2022/11/06 04:32:17;;;;;;;;;;;;;;;20.13;47.78;94717.28;6121762;19;2139;-70
2022/11/06 04:34:23;;;;;;;;;;;;;;;20.13;47.87;94719.97;6124210;19;1973;-70
2022/11/06 04:36:31;;;;;;;;;;;;;;;20.14;47.74;94718.91;6122417;19;1993;-70
2022/11/06 04:38:41;;;;;;;;;;;;;;;20.13;47.71;94725.28;6098379;19;2367;-69
2022/11/06 04:40:53;;;;;;;;;;;;;;;20.14;48.13;94723.44;6121790;19;1877;-70
2022/11/06 04:42:59;;;;;;;;;;;;;;;20.15;48.22;94725.09;6120790;19;1721;-69
2022/11/06 04:45:04;;;;;;;;;;;;;;;20.14;47.71;94715.44;6121795;19;2049;-70
2022/11/06 04:47:10;;;;;;;;;;;;;;;20.16;48.05;94713.38;6122415;19;2241;-70
2022/11/06 04:49:14;;;;;;;;;;;;;;;20.17;47.90;94715.00;6100501;19;1777;-69
2022/11/06 04:51:21;;;;;;;;;;;;;;;20.18;47.98;94722.81;6120152;19;1017;-71
2022/11/06 04:53:25;;;;;;;;;;;;;;;20.18;47.92;94714.00;6122675;19;1987;-71
2022/11/06 04:55:30;;;;;;;;;;;;;;;20.17;47.40;94718.47;6120484;19;1004;-70
2022/11/06 04:57:36;;;;;;;;;;;;;;;20.17;47.73;94720.34;6121656;19;1915;-69
2022/11/06 04:59:40;;;;;;;;;;;;;;;20.17;47.37;94718.47;6111671;19;1930;-69
2022/11/06 05:01:43;;;;;;;;;;;;;;;20.15;47.77;94717.91;6108576;19;2105;-69
2022/11/06 05:03:46;;;;;;;;;;;;;;;20.16;47.54;94724.03;6122445;19;1985;-69
2022/11/06 05:05:49;;;;;;;;;;;;;;;20.16;47.55;94724.03;6119556;19;2193;-70
2022/11/06 05:07:53;;;;;;;;;;;;;;;20.16;47.87;94734.72;6120996;19;2110;-69
2022/11/06 05:09:56;;;;;;;;;;;;;;;20.16;47.88;94724.84;6120807;19;2220;-69
2022/11/06 05:11:59;;;;;;;;;;;;;;;20.16;47.92;94732.88;6096316;19;2318;-68
2022/11/06 05:14:05;;;;;;;;;;;;;;;20.16;47.79;94730.19;6119726;19;1851;-69
2022/11/06 05:16:09;;;;;;;;;;;;;;;20.14;47.82;94734.91;6121086;19;1841;-69
2022/11/06 05:18:13;;;;;;;;;;;;;;;20.16;47.78;94745.38;6120138;19;2311;-69
2022/11/06 05:20:16;;;;;;;;;;;;;;;20.16;47.49;94742.72;6119911;19;1680;-69
2022/11/06 05:24:35;;;;;;;;;;;;;;;20.16;47.68;94753.38;6111239;19;1666;-69
2022/11/06 05:26:39;;;;;;;;;;;;;;;20.15;47.53;94755.25;6117689;19;2149;-70
2022/11/06 05:28:42;;;;;;;;;;;;;;;20.14;47.54;94753.59;6119145;19;1855;-70
2022/11/06 05:30:48;;;;;;;;;;;;;;;20.15;47.62;94759.78;6120289;19;1907;-69
2022/11/06 05:32:52;;;;;;;;;;;;;;;20.15;48.00;94763.25;6120877;19;1905;-70
2022/11/06 05:34:55;;;;;;;;;;;;;;;20.07;48.26;94766.16;6097766;19;1849;-69
2022/11/06 05:36:59;;;;;;;;;;;;;;;20.13;47.77;94767.97;6122670;19;2094;-72
2022/11/06 05:39:02;;;;;;;;;;;;;;;20.16;47.51;94772.88;6120451;19;2096;-71
2022/11/06 05:41:06;;;;;;;;;;;;;;;19.78;46.71;94767.56;6119974;19;954;-71
2022/11/06 05:43:09;;;;;;;;;;;;;;;19.43;46.24;94760.69;6120589;19;1998;-71
2022/11/06 05:45:13;;;;;;;;;;;;;;;19.33;46.29;94773.63;6112674;19;2173;-71
2022/11/06 05:47:19;;;;;;;;;;;;;;;19.29;45.75;94776.91;6107382;19;1793;-72
2022/11/06 05:49:22;;;;;;;;;;;;;;;19.25;45.83;94787.16;6119820;19;2082;-72
2022/11/06 05:51:25;;;;;;;;;;;;;;;19.17;45.69;94780.22;6121580;19;1644;-73
2022/11/06 05:53:29;;;;;;;;;;;;;;;19.17;45.72;94787.38;6118381;19;2106;-71
2022/11/06 05:55:32;;;;;;;;;;;;;;;19.17;45.16;94792.72;6122688;19;2732;-71
2022/11/06 05:57:35;;;;;;;;;;;;;;;19.11;45.27;94796.22;6096518;19;2019;-72
2022/11/06 05:59:39;;;;;;;;;;;;;;;19.08;45.10;94797.44;6121119;19;1878;-73
2022/11/06 06:01:42;;;;;;;;;;;;;;;19.09;45.32;94806.25;6119747;19;2008;-71
2022/11/06 06:03:48;;;;;;;;;;;;;;;19.22;45.39;94800.91;6120950;19;1743;-69
2022/11/06 06:05:52;;;;;;;;;;;;;;;19.47;44.73;94794.91;6120630;19;1775;-72
2022/11/06 06:07:56;;;;;;;;;;;;;;;19.29;44.57;94795.56;6118447;19;1307;-72
2022/11/06 06:10:00;;;;;;;;;;;;;;;19.30;45.04;94802.53;6101948;19;1891;-75
2022/11/06 06:12:03;;;;;;;;;;;;;;;19.41;44.71;94796.56;6118106;19;1984;-72
2022/11/06 06:14:06;;;;;;;;;;;;;;;19.34;43.89;94801.09;6120485;19;1882;-71
2022/11/06 06:16:10;;;;;;;;;;;;;;;19.07;44.60;94801.16;6120363;19;1882;-71
2022/11/06 06:18:13;;;;;;;;;;;;;;;18.66;45.24;94812.00;6118096;19;2054;-70
2022/11/06 06:20:19;;;;;;;;;;;;;;;18.65;45.32;94813.00;6094536;19;1889;-71
2022/11/06 06:22:23;;;;;;;;;;;;;;;18.79;45.25;94816.53;6115471;19;1755;-72
2022/11/06 06:24:26;;;;;;;;;;;;;;;18.79;45.34;94822.66;6119982;19;1933;-75
2022/11/06 06:26:29;;;;;;;;;;;;;;;18.82;45.30;94824.91;6120248;19;1858;-71
2022/11/06 06:28:33;;;;;;;;;;;;;;;18.73;45.29;94821.66;6120688;19;2071;-73
2022/11/06 06:30:37;;;;;;;;;;;;;;;18.70;45.38;94823.91;6120961;19;2685;-73
2022/11/06 06:32:41;;;;;;;;;;;;;;;18.67;45.38;94830.44;6094456;19;1360;-70
2022/11/06 06:34:44;;;;;;;;;;;;;;;18.75;45.05;94835.56;6118876;19;2084;-70
2022/11/06 06:36:53;;;;;;;;;;;;;;;18.82;44.93;94838.22;6120002;19;1916;-71
2022/11/06 06:38:56;;;;;;;;;;;;;;;18.79;44.90;94845.81;6118373;19;2082;-69
2022/11/06 06:41:02;;;;;;;;;;;;;;;18.36;45.74;94848.81;6118727;19;1880;-70
2022/11/06 06:43:05;;;;;;;;;;;;;;;18.20;46.01;94842.00;6106746;19;1851;-70
2022/11/06 06:45:09;;;;;;;;;;;;;;;18.43;46.06;94850.44;6106451;19;1212;-71
2022/11/06 06:47:15;;;;;;;;;;;;;;;18.40;45.78;94858.81;6118720;19;2291;-71
2022/11/06 06:49:19;;;;;;;;;;;;;;;18.86;45.76;94857.25;6119724;19;1796;-71
2022/11/06 06:51:22;;;;;;;;;;;;;;;19.19;45.22;94859.91;6120349;19;1916;-71
2022/11/06 06:53:28;;;;;;;;;;;;;;;19.36;46.13;94858.47;6120028;19;1899;-69
2022/11/06 06:55:31;;;;;;;;;;;;;;;19.47;46.43;94858.88;6095339;19;2079;-70
2022/11/06 06:57:34;;;;;;;;;;;;;;;19.53;46.13;94858.88;6117820;19;1005;-70
2022/11/06 06:59:38;;;;;;;;;;;;;;;19.56;45.99;94861.13;6115535;19;1841;-70
2022/11/06 07:01:41;;;;;;;;;;;;;;;19.62;46.01;94862.94;6118384;19;2039;-67
2022/11/06 07:03:44;;;;;;;;;;;;;;;19.65;46.21;94862.53;6116780;19;2088;-68
2022/11/06 07:05:48;;;;;;;;;;;;;;;19.67;46.13;94863.13;6113669;19;1924;-69
2022/11/06 07:07:51;;;;;;;;;;;;;;;19.70;46.18;94864.56;6112544;19;2565;-69
2022/11/06 07:09:57;;;;;;;;;;;;;;;19.73;47.04;94866.00;6125095;19;2013;-69
2022/11/06 07:12:00;;;;;;;;;;;;;;;19.74;47.21;94868.44;6124722;19;2144;-73
2022/11/06 07:14:04;;;;;;;;;;;;;;;19.76;48.05;94876.25;6124316;19;1793;-70
2022/11/06 07:16:08;;;;;;;;;;;;;;;19.78;47.82;94874.19;6124772;19;2048;-70
2022/11/06 07:18:11;;;;;;;;;;;;;;;19.81;47.88;94877.25;6100439;19;1948;-69
2022/11/06 07:20:15;;;;;;;;;;;;;;;19.81;48.40;94882.59;6125370;19;1795;-68
2022/11/06 07:22:18;;;;;;;;;;;;;;;19.83;48.82;94885.03;6125117;19;1659;-68
2022/11/06 07:24:21;;;;;;;;;;;;;;;19.83;48.53;94885.88;6124837;19;1556;-68
2022/11/06 07:26:27;;;;;;;;;;;;;;;19.86;48.15;94876.59;6123109;19;1654;-67
2022/11/06 07:28:31;;;;;;;;;;;;;;;19.86;48.18;94885.44;6126116;19;2018;-66
2022/11/06 07:30:35;;;;;;;;;;;;;;;19.87;48.15;94888.94;6101549;19;2192;-66
2022/11/06 07:32:39;;;;;;;;;;;;;;;19.87;48.53;94889.75;6124687;19;1831;-68
2022/11/06 07:34:42;;;;;;;;;;;;;;;19.88;48.64;94893.22;6125778;19;2409;-66
2022/11/06 07:36:45;;;;;;;;;;;;;;;19.87;48.44;94887.06;6122880;19;1048;-65
2022/11/06 07:38:48;;;;;;;;;;;;;;;19.89;48.53;94887.69;6121799;19;1834;-67
2022/11/06 07:40:52;;;;;;;;;;;;;;;19.90;48.33;94891.16;6104521;19;1237;-68
2022/11/06 07:43:04;;;;;;;;;;;;;;;19.90;48.17;94888.50;6118064;19;1210;-67
2022/11/06 07:45:08;;;;;;;;;;;;;;;19.89;48.28;94895.69;6122471;19;2011;-68
2022/11/06 07:47:11;;;;;;;;;;;;;;;19.92;48.20;94898.94;6123803;19;2118;-68
2022/11/06 07:49:15;;;;;;;;;;;;;;;19.90;47.85;94899.16;6119574;19;1053;-68
2022/11/06 07:51:18;;;;;;;;;;;;;;;19.92;47.74;94899.78;6125575;19;2100;-68
2022/11/06 07:53:21;;;;;;;;;;;;;;;19.92;47.79;94890.94;6099666;19;1796;-69
2022/11/06 07:55:25;;;;;;;;;;;;;;;19.90;48.20;94896.50;6123801;19;2022;-69
2022/11/06 07:57:29;;;;;;;;;;;;;;;19.92;48.03;94899.78;6124552;19;2031;-69
2022/11/06 07:59:35;;;;;;;;;;;;;;;19.94;47.71;94913.72;6122441;19;1858;-69
2022/11/06 08:01:38;;;;;;;;;;;;;;;19.94;48.01;94896.91;6124718;19;2035;-69
2022/11/06 08:03:42;;;;;;;;;;;;;;;19.93;47.83;94900.59;6108227;19;2165;-70
2022/11/06 08:05:45;;;;;;;;;;;;;;;19.94;48.19;94896.91;6116860;19;2273;-70
2022/11/06 08:07:48;;;;;;;;;;;;;;;19.95;47.94;94904.69;6124115;19;2019;-68
2022/11/06 08:09:52;;;;;;;;;;;;;;;19.95;48.07;94911.88;6122634;19;1766;-69
2022/11/06 08:11:55;;;;;;;;;;;;;;;19.95;48.02;94910.03;6123040;19;1868;-69
2022/11/06 08:14:01;;;;;;;;;;;;;;;19.95;48.04;94910.03;6125373;19;2952;-69
2022/11/06 08:16:11;;;;;;;;;;;;;;;19.96;48.01;94911.66;6096964;19;2293;-69
2022/11/06 08:18:14;;;;;;;;;;;;;;;19.96;47.83;94913.50;6123367;19;2275;-69
2022/11/06 08:20:18;;;;;;;;;;;;;;;19.96;47.88;94917.00;6122391;19;2118;-68
2022/11/06 08:22:21;;;;;;;;;;;;;;;19.97;48.06;94915.13;6121366;19;1109;-68
2022/11/06 08:24:24;;;;;;;;;;;;;;;19.97;48.25;94923.13;6121865;19;2054;-69
2022/11/06 08:26:28;;;;;;;;;;;;;;;19.99;47.79;94921.91;6106687;19;1511;-72
2022/11/06 08:28:31;;;;;;;;;;;;;;;20.00;47.85;94926.19;6121764;19;1786;-70
2022/11/06 08:30:35;;;;;;;;;;;;;;;20.00;48.22;94928.06;6123595;19;2022;-71
2022/11/06 08:32:41;;;;;;;;;;;;;;;20.01;48.30;94929.72;6120487;19;2187;-67
2022/11/06 08:34:45;;;;;;;;;;;;;;;19.97;48.31;94929.28;6123499;19;1839;-70
2022/11/06 08:36:49;;;;;;;;;;;;;;;19.93;48.35;94930.75;6121713;19;1727;-69
2022/11/06 08:38:52;;;;;;;;;;;;;;;19.93;48.56;94927.28;6099541;19;2108;-72
2022/11/06 08:40:55;;;;;;;;;;;;;;;19.92;48.37;94936.28;6119777;19;2013;-73
2022/11/06 08:43:02;;;;;;;;;;;;;;;19.93;48.28;94943.25;6122513;19;2169;-69
2022/11/06 08:45:06;;;;;;;;;;;;;;;19.92;48.64;94942.44;6123878;19;1812;-67
2022/11/06 08:47:09;;;;;;;;;;;;;;;19.91;48.20;94943.47;6120442;19;1273;-68
2022/11/06 08:49:15;;;;;;;;;;;;;;;19.91;48.44;94945.31;6103703;19;1901;-68
2022/11/06 08:51:19;;;;;;;;;;;;;;;19.91;48.32;94939.97;6120557;19;1025;-67
2022/11/06 08:53:22;;;;;;;;;;;;;;;19.91;48.48;94942.66;6122935;19;1987;-68
2022/11/06 08:55:25;;;;;;;;;;;;;;;19.92;48.53;94946.94;6123320;19;2013;-68
2022/11/06 08:57:29;;;;;;;;;;;;;;;19.92;48.33;94944.28;6121848;19;1769;-69
2022/11/06 08:59:32;;;;;;;;;;;;;;;19.93;48.59;94953.94;6121226;19;1857;-71
2022/11/06 09:01:35;;;;;;;;;;;;;;;19.94;48.59;94950.22;6096112;19;2205;-70
2022/11/06 09:03:39;;;;;;;;;;;;;;;19.93;48.93;94959.25;6120928;19;1734;-66
2022/11/06 09:05:45;;;;;;;;;;;;;;;19.95;48.34;94957.22;6118650;19;1353;-68
2022/11/06 09:07:48;;;;;;;;;;;;;;;19.95;48.73;94949.22;6121216;19;1729;-66
2022/11/06 09:09:52;;;;;;;;;;;;;;;19.95;48.51;94952.69;6120718;19;1844;-67
2022/11/06 09:11:55;;;;;;;;;;;;;;;19.96;48.92;94948.19;6110055;19;1737;-68
2022/11/06 09:13:59;;;;;;;;;;;;;;;19.93;48.57;94944.06;6109593;19;2009;-68
2022/11/06 09:16:02;;;;;;;;;;;;;;;19.93;48.61;94951.28;6121477;19;2026;-68
2022/11/06 09:18:06;;;;;;;;;;;;;;;19.94;48.75;94951.03;6119454;19;1077;-68
2022/11/06 09:20:10;;;;;;;;;;;;;;;19.94;48.59;94948.38;6121402;19;2269;-68
2022/11/06 09:22:16;;;;;;;;;;;;;;;19.95;48.89;94951.88;6119906;19;967;-67
2022/11/06 09:24:19;;;;;;;;;;;;;;;19.94;48.83;94952.91;6097611;19;2251;-68
2022/11/06 09:26:23;;;;;;;;;;;;;;;19.95;48.47;94943.88;6122427;19;2049;-69
2022/11/06 09:28:26;;;;;;;;;;;;;;;19.95;48.74;94941.22;6118980;19;2117;-68
2022/11/06 09:30:30;;;;;;;;;;;;;;;19.96;48.41;94951.66;6121470;19;2014;-68
2022/11/06 09:32:33;;;;;;;;;;;;;;;19.96;48.74;94953.50;6122279;19;2308;-67
2022/11/06 09:34:37;;;;;;;;;;;;;;;19.95;48.72;94951.88;6114222;19;2084;-66
2022/11/06 09:36:40;;;;;;;;;;;;;;;19.96;48.28;94953.50;6105865;19;2140;-67
2022/11/06 09:38:46;;;;;;;;;;;;;;;19.97;48.48;94944.47;6121722;19;1988;-69
2022/11/06 09:40:51;;;;;;;;;;;;;;;19.97;48.49;94952.47;6120489;19;2086;-67
2022/11/06 09:42:59;;;;;;;;;;;;;;;19.98;48.71;94948.78;6120506;19;2070;-67
2022/11/06 09:45:06;;;;;;;;;;;;;;;19.97;48.43;94949.81;6120859;19;2120;-69
2022/11/06 09:47:15;;;;;;;;;;;;;;;19.98;48.33;94951.47;6096035;19;2311;-68
2022/11/06 09:49:21;;;;;;;;;;;;;;;19.98;48.79;94951.47;6122015;19;2063;-71
2022/11/06 09:51:30;;;;;;;;;;;;;;;19.97;48.62;94950.63;6119147;19;1373;-70
2022/11/06 09:53:36;;;;;;;;;;;;;;;19.97;48.44;94963.13;6117975;19;2295;-66
2022/11/06 09:55:43;;;;;;;;;;;;;;;19.98;48.77;94948.78;6121180;19;1836;-70
2022/11/06 09:57:48;;;;;;;;;;;;;;;19.97;48.76;94957.81;6107810;19;2096;-68
2022/11/06 09:59:52;;;;;;;;;;;;;;;19.99;48.33;94953.91;6107158;19;2235;-68
2022/11/06 10:01:57;;;;;;;;;;;;;;;19.99;48.88;94953.91;6119942;19;2128;-69
2022/11/06 10:04:01;;;;;;;;;;;;;;;20.00;48.88;94949.38;6120103;19;2280;-69
2022/11/06 10:06:04;;;;;;;;;;;;;;;20.00;48.64;94949.38;6119395;19;1960;-70
2022/11/06 10:08:09;;;;;;;;;;;;;;;20.00;48.96;94952.06;6119983;19;2075;-69
2022/11/06 10:10:16;;;;;;;;;;;;;;;20.00;48.73;94954.72;6097450;19;2254;-69
2022/11/06 10:12:26;;;;;;;;;;;;;;;19.99;49.50;94953.91;6118729;19;1864;-70
2022/11/06 10:14:36;;;;;;;;;;;;;;;19.99;49.89;94955.75;6119553;19;2043;-69
2022/11/06 10:16:43;;;;;;;;;;;;;;;20.02;50.53;94944.66;6119345;19;2041;-69
2022/11/06 10:18:52;;;;;;;;;;;;;;;20.03;50.33;94949.81;6118907;19;2112;-70
2022/11/06 10:20:56;;;;;;;;;;;;;;;20.04;49.63;94950.63;6107749;19;1857;-67
2022/11/06 10:23:04;;;;;;;;;;;;;;;20.04;49.62;94951.44;6107059;19;1831;-68
2022/11/06 10:25:15;;;;;;;;;;;;;;;20.05;49.49;94952.25;6120467;19;2068;-69
2022/11/06 10:27:19;;;;;;;;;;;;;;;20.05;49.31;94949.59;6120674;19;2108;-67
2022/11/06 10:29:37;;;;;;;;;;;;;;;20.03;49.33;94947.16;6117794;19;2954;-69
2022/11/06 10:31:46;;;;;;;;;;;;;;;20.02;49.37;94948.16;6119875;19;2119;-71
2022/11/06 10:33:55;;;;;;;;;;;;;;;20.03;49.33;94949.81;6096372;19;2102;-69
2022/11/06 10:36:01;;;;;;;;;;;;;;;20.00;49.62;94950.19;6120921;19;1835;-68
2022/11/06 10:38:08;;;;;;;;;;;;;;;20.01;50.15;94951.03;6119293;19;1778;-72
2022/11/06 10:40:18;;;;;;;;;;;;;;;20.04;50.03;94942.63;6126029;19;2364;-69
2022/11/06 10:42:22;;;;;;;;;;;;;;;20.05;49.86;94950.41;6126121;19;2254;-71
2022/11/06 10:44:27;;;;;;;;;;;;;;;20.06;49.44;94948.53;6106736;19;2007;-68
2022/11/06 10:46:36;;;;;;;;;;;;;;;20.07;49.43;94950.19;6122998;19;1924;-70
2022/11/06 10:48:41;;;;;;;;;;;;;;;20.06;49.24;94946.72;6126555;19;2566;-69
2022/11/06 10:50:52;;;;;;;;;;;;;;;20.06;49.48;94953.88;6127033;19;1861;-69
2022/11/06 10:52:56;;;;;;;;;;;;;;;20.05;49.16;94950.41;6125549;19;1846;-69
2022/11/06 10:55:05;;;;;;;;;;;;;;;20.06;49.18;94953.88;6124607;19;2264;-70
2022/11/06 10:57:16;;;;;;;;;;;;;;;20.06;49.03;94957.38;6103211;19;2276;-69
2022/11/06 10:59:20;;;;;;;;;;;;;;;20.06;49.40;94961.88;6125368;19;1874;-69
2022/11/06 11:01:24;;;;;;;;;;;;;;;20.06;49.05;94956.53;6125291;19;1993;-69
2022/11/06 11:03:32;;;;;;;;;;;;;;;20.06;49.21;94970.72;6126518;19;2069;-70
2022/11/06 11:05:39;;;;;;;;;;;;;;;20.06;49.02;94960.06;6124535;19;2025;-67
2022/11/06 11:07:43;;;;;;;;;;;;;;;20.07;49.17;94960.88;6100637;19;2075;-70
2022/11/06 11:09:48;;;;;;;;;;;;;;;20.06;49.02;94953.88;6124786;19;1724;-69
2022/11/06 11:11:51;;;;;;;;;;;;;;;20.06;49.09;94960.06;6124187;19;1821;-70
2022/11/06 11:14:10;;;;;;;;;;;;;;;20.06;48.75;94959.22;6123383;19;1876;-69